Time;durP1;ratioP1;P1;durP2;ratioP2;P2;SDS_P1;SDS_P2;PMS_P1;PMS_P2;Temp;Humidity;BMP_temperature;BMP_pressure;BME280_temperature;BME280_humidity;BME280_pressure;Samples;Min_cycle;Max_cycle;Signal;HPM_P1;HPM_P2
2023/06/18 00:00:00;;;;;;;38.53;23.33;;;;;;;14.53;100.00;101438.22;10434796;28;20115;-71
2023/06/18 00:05:01;;;;;;;39.42;21.63;;;;;;;14.42;100.00;101437.34;10399732;28;20041;-71
2023/06/18 00:10:03;;;;;;;37.45;20.20;;;;;;;14.35;100.00;101438.69;10420811;28;20040;-71
2023/06/18 00:15:04;;;;;;;40.05;21.55;;;;;;;14.26;100.00;101441.94;10382541;28;20625;-71
2023/06/18 00:20:05;;;;;;;48.72;22.40;;;;;;;14.20;100.00;101447.69;10376682;28;20052;-72
2023/06/18 00:25:06;;;;;;;39.47;22.65;;;;;;;14.15;100.00;101445.72;10376666;28;20952;-71
2023/06/18 00:30:07;;;;;;;42.13;21.85;;;;;;;14.08;100.00;101434.88;10377174;28;20033;-72
2023/06/18 00:35:07;;;;;;;37.45;20.10;;;;;;;14.12;100.00;101452.63;10377191;28;20041;-72
2023/06/18 00:40:09;;;;;;;40.10;22.60;;;;;;;14.04;100.00;101433.72;10377870;28;20125;-71
2023/06/18 00:45:11;;;;;;;42.00;23.20;;;;;;;13.99;100.00;101438.38;10377423;28;20129;-71
2023/06/18 00:50:14;;;;;;;41.58;22.58;;;;;;;13.99;100.00;101447.50;10375360;28;20044;-71
2023/06/18 00:55:17;;;;;;;40.95;21.92;;;;;;;13.83;100.00;101416.13;10362919;28;20038;-71
2023/06/18 01:00:20;;;;;;;41.50;22.30;;;;;;;13.89;100.00;101434.44;10334942;28;20046;-71
2023/06/18 01:05:21;;;;;;;46.95;25.17;;;;;;;13.73;100.00;101416.84;10337507;28;20041;-71
2023/06/18 01:10:22;;;;;;;48.08;23.35;;;;;;;13.72;100.00;101414.34;10335566;28;20126;-71
2023/06/18 01:15:22;;;;;;;45.08;24.08;;;;;;;13.75;100.00;101418.53;10357866;28;20030;-71
2023/06/18 01:20:25;;;;;;;40.55;21.63;;;;;;;13.77;100.00;101417.16;10374802;28;20049;-71
2023/06/18 01:25:26;;;;;;;41.60;21.88;;;;;;;13.60;100.00;101405.34;10375758;28;20038;-71
2023/06/18 01:30:26;;;;;;;41.63;21.77;;;;;;;13.67;100.00;101428.13;10375843;28;20449;-71
2023/06/18 01:35:27;;;;;;;47.55;24.30;;;;;;;13.63;100.00;101421.44;10377751;28;20086;-71
2023/06/18 01:40:48;;;;;;;43.65;23.42;;;;;;;13.58;100.00;101432.44;10377577;28;20080;-73
2023/06/18 01:45:52;;;;;;;43.90;25.88;;;;;;;13.47;100.00;101412.97;10332092;28;20034;-71
2023/06/18 01:50:53;;;;;;;45.85;22.85;;;;;;;13.55;100.00;101430.22;10372938;28;20133;-71
2023/06/18 01:55:56;;;;;;;42.83;23.25;;;;;;;13.51;100.00;101438.19;10372999;28;20110;-72
2023/06/18 02:00:58;;;;;;;45.67;23.42;;;;;;;13.42;100.00;101437.84;10372965;28;20037;-70
2023/06/18 02:05:58;;;;;;;45.45;24.23;;;;;;;13.35;100.00;101426.13;10375678;28;20046;-71
2023/06/18 02:10:59;;;;;;;41.97;22.75;;;;;;;13.39;100.00;101427.28;10372975;28;20038;-71
2023/06/18 02:16:00;;;;;;;40.13;21.35;;;;;;;13.31;100.00;101408.38;10372626;28;20049;-71
2023/06/18 02:21:00;;;;;;;40.20;20.42;;;;;;;13.35;100.00;101414.22;10387569;28;20046;-72
2023/06/18 02:26:02;;;;;;;35.85;20.98;;;;;;;13.36;100.00;101411.22;10388432;28;20030;-71
2023/06/18 02:31:04;;;;;;;30.13;18.13;;;;;;;13.33;100.00;101411.72;10380283;28;20061;-71
2023/06/18 02:36:05;;;;;;;29.17;17.75;;;;;;;13.26;100.00;101420.19;10380690;28;20038;-71
2023/06/18 02:41:06;;;;;;;28.88;18.27;;;;;;;13.30;100.00;101420.56;10407811;28;20050;-71
2023/06/18 02:46:06;;;;;;;32.05;17.13;;;;;;;13.37;100.00;101417.56;10420332;28;20041;-71
2023/06/18 02:51:07;;;;;;;29.92;16.98;;;;;;;13.44;100.00;101412.69;10421077;28;20040;-71
2023/06/18 02:56:07;;;;;;;31.73;17.85;;;;;;;13.48;100.00;101402.78;10421381;28;20089;-72
2023/06/18 03:01:08;;;;;;;30.63;18.08;;;;;;;13.19;100.00;101355.13;10403563;28;20049;-71
2023/06/18 03:06:08;;;;;;;30.08;18.40;;;;;;;13.52;100.00;101403.91;10419964;28;20046;-70
2023/06/18 03:11:09;;;;;;;31.88;17.63;;;;;;;13.55;100.00;101402.56;10419235;28;20041;-71
2023/06/18 03:16:09;;;;;;;30.40;17.30;;;;;;;13.57;100.00;101412.25;10416903;28;20038;-71
2023/06/18 03:21:10;;;;;;;27.33;16.92;;;;;;;13.59;100.00;101396.22;10385526;28;20037;-71
2023/06/18 03:26:11;;;;;;;25.17;15.45;;;;;;;13.53;100.00;101400.03;10434985;28;20037;-71
2023/06/18 03:31:12;;;;;;;27.83;16.60;;;;;;;13.53;100.00;101398.09;10420733;28;20033;-71
2023/06/18 03:36:15;;;;;;;29.95;15.27;;;;;;;13.55;100.00;101405.31;10421470;28;20057;-71
2023/06/18 03:41:16;;;;;;;25.55;14.05;;;;;;;13.50;100.00;101395.88;10393269;28;20045;-71
2023/06/18 03:46:16;;;;;;;21.35;13.32;;;;;;;13.44;100.00;101402.44;10390306;28;20041;-70
2023/06/18 03:51:17;;;;;;;26.33;14.40;;;;;;;13.46;100.00;101405.78;10417605;28;20080;-69
2023/06/18 03:56:18;;;;;;;23.48;13.65;;;;;;;13.57;100.00;101414.19;10419330;28;20049;-70
2023/06/18 04:01:18;;;;;;;22.70;14.57;;;;;;;13.68;100.00;101410.41;10419800;28;20037;-69
2023/06/18 04:06:19;;;;;;;23.52;14.77;;;;;;;13.84;100.00;101406.69;10419038;28;20034;-69
2023/06/18 04:11:19;;;;;;;19.52;12.65;;;;;;;13.95;100.00;101401.25;10418203;28;20042;-70
2023/06/18 04:16:20;;;;;;;20.83;13.20;;;;;;;13.83;100.00;101366.28;10459238;28;20029;-71
2023/06/18 04:21:20;;;;;;;22.20;13.63;;;;;;;14.22;100.00;101396.50;10458520;28;20033;-70
2023/06/18 04:26:21;;;;;;;20.70;12.70;;;;;;;14.38;100.00;101393.81;10459196;28;20052;-70
2023/06/18 04:31:21;;;;;;;19.88;12.82;;;;;;;14.54;100.00;101399.19;10457185;28;20048;-69
2023/06/18 04:36:22;;;;;;;19.73;13.27;;;;;;;14.59;100.00;101406.72;10436592;28;20057;-69
2023/06/18 04:41:23;;;;;;;18.92;12.07;;;;;;;14.60;100.00;101402.84;10455688;28;20604;-71
2023/06/18 04:46:23;;;;;;;19.92;12.57;;;;;;;14.57;100.00;101403.38;10454366;28;20131;-71
2023/06/18 04:51:24;;;;;;;19.48;13.32;;;;;;;14.63;100.00;101395.94;10455206;28;20037;-72
2023/06/18 04:56:26;;;;;;;20.42;13.45;;;;;;;14.72;100.00;101395.16;10456046;28;20394;-73
2023/06/18 05:01:26;;;;;;;22.50;13.50;;;;;;;14.86;100.00;101398.28;10456668;28;20048;-71
2023/06/18 05:06:27;;;;;;;25.33;13.95;;;;;;;15.00;100.00;101397.78;10456535;28;20045;-71
2023/06/18 05:11:27;;;;;;;22.58;14.52;;;;;;;15.13;100.00;101395.34;10455157;28;20041;-71
2023/06/18 05:16:28;;;;;;;19.88;13.95;;;;;;;15.25;100.00;101408.94;10455315;28;20041;-70
2023/06/18 05:21:28;;;;;;;23.55;14.68;;;;;;;15.37;100.00;101411.47;10457606;28;20040;-72
2023/06/18 05:26:30;;;;;;;22.13;14.20;;;;;;;15.44;100.00;101405.66;10422582;28;20048;-71
2023/06/18 05:31:32;;;;;;;21.85;13.25;;;;;;;15.52;100.00;101414.31;10451589;28;20044;-71
2023/06/18 05:36:33;;;;;;;22.02;14.48;;;;;;;15.53;100.00;101432.59;10455350;28;20545;-71
2023/06/18 05:41:33;;;;;;;22.45;14.88;;;;;;;15.49;100.00;101416.78;10453332;28;20041;-71
2023/06/18 05:46:34;;;;;;;22.88;15.07;;;;;;;15.46;100.00;101415.41;10459448;28;20526;-71
2023/06/18 05:51:34;;;;;;;22.27;14.27;;;;;;;15.49;100.00;101419.56;10436742;28;20033;-72
2023/06/18 05:56:36;;;;;;;26.13;15.52;;;;;;;15.70;100.00;101423.19;10454685;28;20048;-71
2023/06/18 06:01:36;;;;;;;24.85;15.98;;;;;;;15.93;100.00;101422.69;10437309;28;20037;-71
2023/06/18 06:06:37;;;;;;;22.85;14.18;;;;;;;16.14;100.00;101417.13;10464347;28;20041;-71
2023/06/18 06:11:38;;;;;;;21.27;14.57;;;;;;;16.47;100.00;101439.88;10451762;28;20037;-72
2023/06/18 06:16:40;;;;;;;19.52;13.68;;;;;;;16.70;100.00;101430.09;10431727;28;20033;-72
2023/06/18 06:21:40;;;;;;;22.90;14.63;;;;;;;16.88;100.00;101423.97;10424602;28;20041;-72
2023/06/18 06:26:41;;;;;;;25.45;15.63;;;;;;;17.13;100.00;101417.47;10404075;28;20033;-73
2023/06/18 06:31:41;;;;;;;21.83;14.82;;;;;;;17.26;100.00;101418.81;10420272;28;20040;-72
2023/06/18 06:36:42;;;;;;;22.95;15.13;;;;;;;17.08;100.00;101350.75;10419757;28;20033;-70
2023/06/18 06:41:42;;;;;;;23.70;14.68;;;;;;;17.73;100.00;101428.53;10430306;28;20033;-71
2023/06/18 06:46:43;;;;;;;20.92;13.82;;;;;;;18.14;100.00;101413.50;10442209;28;20053;-72
2023/06/18 06:51:44;;;;;;;18.48;13.13;;;;;;;18.30;100.00;101414.19;10445485;28;20374;-72
2023/06/18 06:56:44;;;;;;;22.13;14.30;;;;;;;18.54;100.00;101414.22;10461425;28;20033;-71
2023/06/18 07:01:45;;;;;;;20.08;14.20;;;;;;;18.84;100.00;101418.66;10462359;28;20037;-72
2023/06/18 07:06:45;;;;;;;20.85;13.95;;;;;;;18.99;100.00;101414.03;10443868;28;20588;-71
2023/06/18 07:11:46;;;;;;;19.58;14.70;;;;;;;19.22;100.00;101429.06;10453445;28;20033;-72
2023/06/18 07:16:47;;;;;;;20.13;14.32;;;;;;;19.56;100.00;101424.13;10436750;28;20034;-72
2023/06/18 07:21:50;;;;;;;19.30;13.40;;;;;;;19.81;100.00;101426.88;10443940;28;20140;-72
2023/06/18 07:26:50;;;;;;;19.42;14.00;;;;;;;20.15;100.00;101416.25;10439318;28;20101;-71
2023/06/18 07:31:51;;;;;;;20.35;13.02;;;;;;;20.46;100.00;101412.88;10439159;28;20098;-72
2023/06/18 07:36:51;;;;;;;19.38;13.13;;;;;;;20.82;100.00;101417.00;10429581;28;20044;-71
2023/06/18 07:41:52;;;;;;;16.45;12.35;;;;;;;21.20;100.00;101409.19;10440278;28;20075;-71
2023/06/18 07:46:52;;;;;;;17.38;12.27;;;;;;;21.59;100.00;101395.75;10460098;28;20041;-72
2023/06/18 07:51:54;;;;;;;17.95;12.43;;;;;;;21.98;100.00;101400.69;10458929;28;20404;-72
2023/06/18 07:56:54;;;;;;;17.13;12.13;;;;;;;22.23;100.00;101387.16;10459788;28;20061;-72
2023/06/18 08:01:55;;;;;;;18.83;12.02;;;;;;;22.47;100.00;101386.78;10446662;28;20412;-72
2023/06/18 08:06:55;;;;;;;16.48;11.60;;;;;;;22.73;100.00;101382.13;10437084;28;20041;-71
2023/06/18 08:11:56;;;;;;;16.30;11.63;;;;;;;23.06;100.00;101378.13;10438169;28;20452;-71
2023/06/18 08:16:56;;;;;;;17.10;11.93;;;;;;;23.15;100.00;101374.19;10443921;28;20041;-72
2023/06/18 08:21:57;;;;;;;16.38;11.23;;;;;;;23.32;100.00;101364.94;10443713;28;20044;-72
2023/06/18 08:26:57;;;;;;;15.85;11.32;;;;;;;23.62;100.00;101367.09;10436003;28;20462;-73
2023/06/18 08:32:04;;;;;;;14.05;10.13;;;;;;;23.90;100.00;101368.44;10426765;28;20041;-73
2023/06/18 08:37:05;;;;;;;16.63;11.27;;;;;;;24.15;100.00;101365.91;10423051;28;20041;-73
2023/06/18 08:42:06;;;;;;;17.40;11.30;;;;;;;24.29;100.00;101363.72;10446068;28;20060;-73
2023/06/18 08:47:06;;;;;;;14.57;9.80;;;;;;;24.31;100.00;101338.03;10435363;28;20045;-72
2023/06/18 08:52:08;;;;;;;17.25;10.73;;;;;;;24.64;100.00;101343.91;10417313;28;20036;-72
2023/06/18 08:57:31;;;;;;;14.15;10.15;;;;;;;24.87;100.00;101347.25;10426756;28;20036;-72
2023/06/18 09:02:31;;;;;;;15.50;10.80;;;;;;;25.06;100.00;101335.53;10416584;28;20046;-77
2023/06/18 09:07:32;;;;;;;14.75;10.48;;;;;;;25.22;100.00;101332.13;10414533;28;20504;-71
2023/06/18 09:12:32;;;;;;;15.23;11.57;;;;;;;25.16;100.00;101335.13;10420751;28;20439;-72
2023/06/18 09:17:33;;;;;;;15.32;10.50;;;;;;;25.29;100.00;101321.16;10459190;28;20079;-70
2023/06/18 09:22:43;;;;;;;12.65;9.10;;;;;;;25.43;100.00;101327.31;10456156;28;20522;-71
2023/06/18 09:27:45;;;;;;;11.88;9.05;;;;;;;25.58;100.00;101326.69;10440879;28;20118;-75
2023/06/18 09:32:49;;;;;;;13.60;9.65;;;;;;;25.76;100.00;101310.44;10455280;28;20699;-73
2023/06/18 09:37:50;;;;;;;13.88;8.88;;;;;;;26.02;100.00;101314.97;10438858;28;20040;-71
2023/06/18 09:42:50;;;;;;;18.10;8.45;;;;;;;26.29;100.00;101307.03;10449535;28;20038;-72
2023/06/18 09:47:51;;;;;;;12.60;8.73;;;;;;;26.47;100.00;101302.00;10422499;28;20567;-71
2023/06/18 09:52:51;;;;;;;11.32;8.18;;;;;;;26.60;100.00;101295.19;10414629;28;20033;-76
2023/06/18 09:57:52;;;;;;;11.70;7.18;;;;;;;26.66;100.00;101288.13;10408591;22;20049;-78
2023/06/18 10:02:52;;;;;;;10.55;7.40;;;;;;;27.07;100.00;101300.31;10377434;28;20061;-78
2023/06/18 10:07:53;;;;;;;11.80;8.43;;;;;;;27.37;99.95;101294.38;10376185;28;20034;-77
2023/06/18 10:12:53;;;;;;;9.82;7.50;;;;;;;27.58;97.72;101277.19;10359513;28;20049;-77
2023/06/18 10:17:57;;;;;;;13.23;8.00;;;;;;;27.69;96.76;101263.34;10346651;28;20564;-77
2023/06/18 10:22:59;;;;;;;9.07;7.40;;;;;;;27.95;94.19;101274.19;10329862;28;20464;-77
2023/06/18 10:28:00;;;;;;;12.27;8.50;;;;;;;27.96;91.97;101270.97;10325467;28;20042;-77
2023/06/18 10:33:00;;;;;;;10.15;7.78;;;;;;;28.03;90.01;101258.19;10346681;28;20069;-77
2023/06/18 10:38:01;;;;;;;10.77;7.70;;;;;;;28.03;88.52;101238.38;10347691;28;20026;-77
2023/06/18 10:43:04;;;;;;;7.78;6.40;;;;;;;28.28;87.38;101245.50;10350727;28;20042;-77
2023/06/18 10:48:18;;;;;;;8.20;6.90;;;;;;;28.15;82.88;101188.19;10355783;28;20039;-78
2023/06/18 10:53:22;;;;;;;9.50;7.50;;;;;;;28.50;81.19;101203.56;10424129;28;20176;-76
2023/06/18 10:58:33;;;;;;;8.02;6.50;;;;;;;28.84;80.21;101224.59;10418696;28;20064;-77
2023/06/18 11:03:35;;;;;;;9.10;6.22;;;;;;;29.03;77.81;101215.28;10399827;28;20042;-77
2023/06/18 11:08:37;;;;;;;7.65;5.97;;;;;;;29.32;76.88;101211.03;10351415;28;20037;-76
2023/06/18 11:13:41;;;;;;;10.13;6.15;;;;;;;29.54;74.21;101205.75;10372202;28;20034;-76
2023/06/18 11:18:43;;;;;;;8.10;6.03;;;;;;;29.59;71.43;101208.31;10384081;28;20034;-78
2023/06/18 11:23:43;;;;;;;7.53;5.85;;;;;;;29.48;72.52;101207.28;10365824;28;20042;-78
2023/06/18 11:28:45;;;;;;;7.47;6.00;;;;;;;29.33;73.04;101152.28;10382291;28;20030;-78
2023/06/18 11:33:48;;;;;;;8.40;5.68;;;;;;;29.66;71.72;101197.06;10365743;28;20040;-78
2023/06/18 11:38:49;;;;;;;9.75;6.75;;;;;;;29.80;69.10;101185.19;10365058;28;20026;-79
2023/06/18 11:43:50;;;;;;;10.57;6.05;;;;;;;30.13;69.71;101186.56;10330064;28;20292;-79
2023/06/18 11:48:52;;;;;;;9.55;6.45;;;;;;;30.58;68.98;101176.31;10356957;28;20093;-79
2023/06/18 11:53:53;;;;;;;6.38;5.50;;;;;;;31.02;65.25;101167.16;10356987;28;20042;-79
2023/06/18 11:58:57;;;;;;;8.40;5.57;;;;;;;31.21;64.60;101165.34;10334141;28;20084;-79
2023/06/18 12:04:04;;;;;;;8.75;5.88;;;;;;;31.37;62.12;101158.19;10345553;28;20038;-78
2023/06/18 12:09:07;;;;;;;8.88;5.35;;;;;;;31.42;63.83;101153.34;10362497;28;20501;-78
2023/06/18 12:14:10;;;;;;;7.88;5.75;;;;;;;31.20;62.63;101158.03;10345632;28;20044;-78
2023/06/18 12:19:11;;;;;;;6.80;5.53;;;;;;;30.65;63.67;101170.72;10377032;28;20030;-79
2023/06/18 12:24:11;;;;;;;8.18;6.22;;;;;;;30.62;64.18;101153.63;10377831;28;20030;-79
2023/06/18 12:29:12;;;;;;;6.22;5.03;;;;;;;30.87;65.76;101165.31;10377521;28;20052;-78
2023/06/18 12:34:22;;;;;;;7.32;6.00;;;;;;;31.36;61.01;101150.88;10377427;28;20038;-79
2023/06/18 12:39:23;;;;;;;6.07;5.47;;;;;;;31.57;58.40;101133.22;10393901;28;20062;-79
2023/06/18 12:44:24;;;;;;;7.35;6.20;;;;;;;32.26;58.86;101128.88;10321766;28;20042;-78
2023/06/18 12:49:25;;;;;;;6.88;5.75;;;;;;;32.81;56.58;101118.63;10367634;28;20033;-80
2023/06/18 12:54:25;;;;;;;9.18;5.50;;;;;;;32.87;54.98;101105.56;10343224;28;20034;-78
2023/06/18 12:59:25;;;;;;;6.95;5.82;;;;;;;33.06;55.69;101113.78;10375622;28;20084;-78
2023/06/18 13:04:26;;;;;;;6.82;5.28;;;;;;;32.69;55.04;101116.94;10338674;28;20121;-78
2023/06/18 13:09:26;;;;;;;6.60;5.18;;;;;;;32.67;54.64;101105.13;10335921;28;20038;-79
2023/06/18 13:14:27;;;;;;;6.40;5.20;;;;;;;32.53;53.95;101086.69;10361225;28;20504;-78
2023/06/18 13:19:31;;;;;;;9.13;5.88;;;;;;;31.86;55.86;101076.53;10374892;28;20466;-79
2023/06/18 13:24:31;;;;;;;6.63;5.45;;;;;;;30.91;54.29;101055.34;10370808;28;20452;-79
2023/06/18 13:29:32;;;;;;;6.93;5.82;;;;;;;31.31;56.35;101085.00;10341627;28;20037;-79
2023/06/18 13:34:33;;;;;;;6.03;4.93;;;;;;;32.29;54.28;101082.53;10337382;28;20086;-79
2023/06/18 13:39:34;;;;;;;6.13;5.53;;;;;;;33.21;53.68;101077.56;10341342;28;20509;-79
2023/06/18 13:44:35;;;;;;;7.15;5.47;;;;;;;33.53;52.11;101074.75;10372965;28;20054;-79
2023/06/18 13:49:35;;;;;;;6.00;5.40;;;;;;;33.63;51.02;101058.03;10374792;28;20034;-80
2023/06/18 13:54:36;;;;;;;6.38;5.55;;;;;;;33.73;50.14;101043.75;10374782;28;20880;-79
2023/06/18 13:59:36;;;;;;;5.95;5.43;;;;;;;34.21;51.84;101068.16;10346255;28;20038;-80
2023/06/18 14:04:37;;;;;;;6.70;6.00;;;;;;;34.29;48.62;101052.59;10336686;28;20078;-80
2023/06/18 14:09:37;;;;;;;6.82;4.93;;;;;;;34.26;49.51;101059.16;10364546;28;20038;-79
2023/06/18 14:14:38;;;;;;;6.47;5.05;;;;;;;34.31;51.81;101067.31;10358552;28;20037;-80
2023/06/18 14:19:39;;;;;;;6.28;5.10;;;;;;;34.48;46.85;101041.91;10358626;28;20049;-79
2023/06/18 14:24:40;;;;;;;5.35;4.43;;;;;;;34.23;46.98;101042.03;10377253;28;20030;-80
2023/06/18 14:29:40;;;;;;;5.93;5.30;;;;;;;33.62;46.76;101036.44;10377550;28;20038;-80
2023/06/18 14:34:41;;;;;;;6.35;4.97;;;;;;;32.65;46.89;101030.59;10342808;28;20046;-77
2023/06/18 14:39:41;;;;;;;6.68;4.82;;;;;;;31.96;51.20;101038.78;10325264;28;20038;-79
2023/06/18 14:44:42;;;;;;;9.90;5.47;;;;;;;31.25;52.85;101046.72;10379579;28;20033;-80
2023/06/18 14:49:43;;;;;;;6.03;4.72;;;;;;;30.61;54.09;101024.94;10381506;28;20026;-80
2023/06/18 14:54:43;;;;;;;5.82;4.72;;;;;;;30.35;56.62;101051.41;10364201;28;20037;-80
2023/06/18 14:59:44;;;;;;;5.60;4.60;;;;;;;29.88;55.31;101039.38;10395430;28;20046;-79
2023/06/18 15:04:44;;;;;;;7.03;5.65;;;;;;;29.77;56.09;101056.25;10380020;28;20046;-79
2023/06/18 15:09:45;;;;;;;5.95;5.07;;;;;;;29.58;57.46;101054.31;10364122;28;20038;-79
2023/06/18 15:14:45;;;;;;;6.30;5.10;;;;;;;29.47;58.03;101049.63;10375696;28;20037;-80
2023/06/18 15:19:46;;;;;;;7.57;5.32;;;;;;;29.43;57.00;101049.56;10403813;28;20029;-79
2023/06/18 15:24:47;;;;;;;19.25;5.70;;;;;;;29.30;56.61;101025.47;10387706;28;20046;-79
2023/06/18 15:29:48;;;;;;;8.65;4.57;;;;;;;29.45;56.80;101044.34;10397570;28;20141;-77
2023/06/18 15:34:48;;;;;;;6.25;5.22;;;;;;;29.54;59.10;101046.91;10346162;28;20038;-79
2023/06/18 15:39:49;;;;;;;5.53;4.70;;;;;;;29.45;57.73;101033.00;10346649;28;20097;-78
2023/06/18 15:44:49;;;;;;;6.28;4.80;;;;;;;29.38;59.12;101050.72;10361338;28;20560;-79
2023/06/18 15:49:50;;;;;;;6.03;4.75;;;;;;;29.14;59.69;101037.72;10345707;28;20033;-79
2023/06/18 15:54:50;;;;;;;5.93;4.88;;;;;;;28.84;56.55;101025.44;10362012;28;20045;-79
2023/06/18 15:59:51;;;;;;;7.38;5.90;;;;;;;28.75;57.76;101029.31;10360079;28;20038;-79
2023/06/18 16:04:51;;;;;;;7.80;5.50;;;;;;;28.83;56.65;101018.09;10359682;28;20048;-80
2023/06/18 16:09:52;;;;;;;8.40;6.05;;;;;;;29.08;59.38;101030.72;10377435;28;20202;-79
2023/06/18 16:14:52;;;;;;;5.97;4.70;;;;;;;28.96;56.47;100971.38;10358417;28;20049;-78
2023/06/18 16:19:53;;;;;;;6.90;4.72;;;;;;;29.22;55.81;101018.03;10374805;28;20081;-80
2023/06/18 16:24:54;;;;;;;5.30;4.10;;;;;;;29.14;58.34;101017.06;10392163;28;20045;-78
2023/06/18 16:29:54;;;;;;;7.85;4.60;;;;;;;28.96;58.67;101022.38;10397566;28;20038;-79
2023/06/18 16:34:55;;;;;;;6.20;4.97;;;;;;;28.77;58.08;101012.75;10414171;28;20049;-78
2023/06/18 16:39:55;;;;;;;7.47;5.50;;;;;;;28.36;60.48;101006.66;10413462;28;20053;-79
2023/06/18 16:44:56;;;;;;;6.47;5.50;;;;;;;28.05;61.32;100995.47;10373387;28;20049;-79
2023/06/18 16:49:56;;;;;;;4.50;4.03;;;;;;;27.54;61.74;100973.69;10381935;28;20575;-78
2023/06/18 16:54:57;;;;;;;5.45;4.20;;;;;;;27.60;62.74;101025.09;10366859;28;20025;-79
2023/06/18 16:59:59;;;;;;;6.80;4.40;;;;;;;27.28;62.25;101019.50;10408716;28;20042;-77
2023/06/18 17:04:59;;;;;;;5.95;4.45;;;;;;;27.03;62.68;101013.16;10376557;28;20091;-76
2023/06/18 17:10:00;;;;;;;7.38;4.72;;;;;;;26.87;63.30;101013.16;10370930;28;20071;-75
2023/06/18 17:15:01;;;;;;;7.32;5.25;;;;;;;26.76;62.27;101013.66;10372721;28;20385;-79
2023/06/18 17:20:01;;;;;;;7.22;4.78;;;;;;;26.70;63.34;101001.00;10395790;28;20045;-78
2023/06/18 17:25:03;;;;;;;8.40;4.35;;;;;;;26.67;63.24;101006.56;10397148;28;20056;-77
2023/06/18 17:30:04;;;;;;;6.78;4.75;;;;;;;26.52;63.08;101008.97;10393908;28;20057;-77
2023/06/18 17:35:05;;;;;;;6.50;4.72;;;;;;;26.26;62.40;101008.59;10365716;28;20041;-78
2023/06/18 17:40:07;;;;;;;9.98;5.40;;;;;;;26.11;62.69;101015.81;10411112;28;20041;-76
2023/06/18 17:45:08;;;;;;;4.95;4.22;;;;;;;25.97;62.79;101005.72;10397375;28;20093;-77
2023/06/18 17:50:09;;;;;;;5.75;4.45;;;;;;;25.91;64.04;101009.16;10372312;28;20029;-77
2023/06/18 17:55:13;;;;;;;8.75;5.15;;;;;;;25.89;65.09;101012.31;10397300;28;20026;-77
2023/06/18 18:00:14;;;;;;;7.43;5.22;;;;;;;25.89;65.40;101029.25;10388237;28;20037;-78
2023/06/18 18:05:16;;;;;;;6.40;4.47;;;;;;;25.85;65.14;101017.00;10424105;28;20048;-77
2023/06/18 18:10:16;;;;;;;7.68;4.70;;;;;;;25.69;65.54;101025.34;10389287;28;20042;-78
2023/06/18 18:15:19;;;;;;;8.02;4.78;;;;;;;25.51;66.59;101030.44;10398751;28;20045;-76
2023/06/18 18:20:23;;;;;;;8.38;4.78;;;;;;;25.39;68.03;101024.78;10365331;28;20048;-77
2023/06/18 18:25:23;;;;;;;5.40;4.38;;;;;;;25.18;66.81;101022.88;10387139;28;20034;-79
2023/06/18 18:30:25;;;;;;;7.43;5.80;;;;;;;25.10;67.62;101008.91;10385000;28;20042;-77
2023/06/18 18:35:26;;;;;;;8.98;6.20;;;;;;;25.10;68.45;101043.50;10389124;28;20435;-78
2023/06/18 18:40:26;;;;;;;7.35;5.63;;;;;;;25.00;69.04;101043.97;10407944;28;20026;-77
2023/06/18 18:45:28;;;;;;;7.35;6.20;;;;;;;24.90;70.65;101038.78;10369929;28;20033;-76
2023/06/18 18:50:29;;;;;;;7.85;5.72;;;;;;;24.72;71.18;101033.34;10385878;28;20046;-77
2023/06/18 18:55:29;;;;;;;14.05;6.70;;;;;;;24.54;71.21;101020.59;10359227;28;20041;-78
2023/06/18 19:00:30;;;;;;;10.60;5.55;;;;;;;24.50;71.48;101030.91;10396524;28;20037;-78
2023/06/18 19:05:32;;;;;;;7.38;5.57;;;;;;;24.07;74.63;100979.44;10358979;28;20093;-79
2023/06/18 19:10:33;;;;;;;6.65;5.15;;;;;;;24.26;75.34;101035.19;10340437;28;20046;-77
2023/06/18 19:15:34;;;;;;;7.38;5.55;;;;;;;24.13;76.54;101022.25;10383722;28;20037;-77
2023/06/18 19:20:35;;;;;;;9.02;6.35;;;;;;;23.95;78.23;101022.38;10405798;28;20177;-78
2023/06/18 19:25:36;;;;;;;7.70;5.60;;;;;;;23.80;79.11;101014.53;10405202;28;20040;-80
2023/06/18 19:30:40;;;;;;;6.95;5.38;;;;;;;23.70;79.21;101026.16;10375256;28;20051;-78
2023/06/18 19:35:42;;;;;;;8.25;6.32;;;;;;;23.53;80.43;101033.50;10365886;28;20055;-79
2023/06/18 19:40:43;;;;;;;9.32;5.95;;;;;;;23.45;81.64;101034.38;10404795;28;20037;-78
2023/06/18 19:45:43;;;;;;;7.78;5.47;;;;;;;23.38;83.70;101036.91;10356078;28;20043;-79
2023/06/18 19:50:44;;;;;;;6.15;4.78;;;;;;;23.34;85.78;101042.38;10358526;28;20040;-78
2023/06/18 19:55:46;;;;;;;6.03;4.40;;;;;;;23.32;89.37;101060.72;10402475;28;20121;-77
2023/06/18 20:00:48;;;;;;;8.48;4.72;;;;;;;23.30;93.63;101091.16;10388999;28;20064;-78
2023/06/18 20:05:49;;;;;;;4.47;3.90;;;;;;;23.25;94.39;101099.72;10401995;28;20037;-75
2023/06/18 20:10:49;;;;;;;8.07;4.60;;;;;;;23.21;96.82;101093.13;10384321;28;20033;-77
2023/06/18 20:15:50;;;;;;;5.07;4.18;;;;;;;23.07;97.83;101082.94;10414574;28;20038;-77
2023/06/18 20:20:50;;;;;;;5.13;4.10;;;;;;;23.07;97.88;101098.94;10413759;28;20045;-76
2023/06/18 20:25:51;;;;;;;5.78;3.92;;;;;;;22.91;99.93;101084.59;10383274;28;20299;-77
2023/06/18 20:30:52;;;;;;;8.07;5.03;;;;;;;22.93;100.00;101125.22;10375156;28;20033;-77
2023/06/18 20:35:54;;;;;;;5.95;4.72;;;;;;;22.71;100.00;101117.78;10403817;28;20120;-76
2023/06/18 20:40:54;;;;;;;8.65;5.65;;;;;;;22.37;100.00;101113.03;10401849;28;20050;-75
2023/06/18 20:45:55;;;;;;;9.60;4.85;;;;;;;22.26;100.00;101103.25;10401975;28;20041;-75
2023/06/18 20:51:02;;;;;;;5.70;4.90;;;;;;;22.10;100.00;101094.47;10399005;28;20070;-76
2023/06/18 20:56:05;;;;;;;5.88;4.72;;;;;;;21.98;100.00;101085.88;10415051;28;20041;-75
2023/06/18 21:01:05;;;;;;;9.40;4.93;;;;;;;21.90;100.00;101091.13;10413288;28;20038;-77
2023/06/18 21:06:06;;;;;;;5.68;4.75;;;;;;;21.84;100.00;101081.22;10390358;28;20038;-75
2023/06/18 21:11:07;;;;;;;6.15;4.90;;;;;;;21.79;100.00;101067.38;10401111;28;20025;-77
2023/06/18 21:16:08;;;;;;;7.50;5.18;;;;;;;21.74;100.00;101071.13;10399535;28;20030;-76
2023/06/18 21:21:08;;;;;;;7.78;5.57;;;;;;;21.71;100.00;101059.75;10381785;28;20030;-77
2023/06/18 21:26:11;;;;;;;6.28;5.65;;;;;;;21.67;100.00;101055.97;10360087;28;20523;-75
2023/06/18 21:31:12;;;;;;;6.13;5.10;;;;;;;21.72;100.00;101053.81;10391342;28;20037;-76
2023/06/18 21:36:14;;;;;;;6.72;5.05;;;;;;;21.70;100.00;101052.50;10408429;28;20042;-77
2023/06/18 21:41:15;;;;;;;7.47;5.28;;;;;;;21.68;100.00;101038.81;10356212;28;20121;-78
2023/06/18 21:46:18;;;;;;;9.18;5.15;;;;;;;21.68;100.00;101037.97;10363905;28;20125;-79
2023/06/18 21:51:19;;;;;;;7.38;5.88;;;;;;;21.67;100.00;101039.16;10398149;28;20033;-75
2023/06/18 21:56:20;;;;;;;7.53;5.40;;;;;;;21.63;100.00;101038.97;10387104;28;20402;-74
2023/06/18 22:01:21;;;;;;;8.60;5.95;;;;;;;21.59;100.00;101037.16;10376870;28;20046;-76
2023/06/18 22:06:22;;;;;;;6.82;5.63;;;;;;;21.51;100.00;101033.97;10417957;28;20049;-76
2023/06/18 22:11:23;;;;;;;9.50;6.05;;;;;;;21.49;100.00;101025.06;10371081;28;20072;-76
2023/06/18 22:16:24;;;;;;;7.22;5.38;;;;;;;21.52;100.00;101041.25;10363132;28;20037;-76
2023/06/18 22:21:26;;;;;;;8.48;5.32;;;;;;;21.36;100.00;101026.81;10390998;28;20037;-76
2023/06/18 22:26:28;;;;;;;9.52;5.32;;;;;;;21.30;100.00;101010.50;10413600;28;20041;-76
2023/06/18 22:31:29;;;;;;;7.88;5.93;;;;;;;21.40;100.00;101029.81;10357331;28;20032;-76
2023/06/18 22:36:32;;;;;;;8.25;6.47;;;;;;;21.37;100.00;101027.63;10400068;28;20040;-75
2023/06/18 22:41:33;;;;;;;9.40;5.72;;;;;;;21.34;100.00;101017.09;10399623;28;20042;-76